Wichita Mid Continent Airport
KICT : rendu visible

Aérodrome :











RETROUVEZ-NOUS SUR...

 
LOGIN :

S'inscrire | Disclaimer

   EN    FR    IT 

 









Légende :    VFR   VFR Marginal   IFR   IFR Intensif   IFR Très Intensif
Visi : 
Plafond : 
>= 8 km
>= 3000ft
5 à 8 km
1000 à 3000 ft
1500m à 5 km
500 à 1000 ft
800 à 1500m
200 à 500 ft
< 800m
< 200 ft
Symboles :   Orages  Brouillard  Fortes neiges  Fortes précipitations  Vent > 20 kt






- Altitude de l'aérodrome : 1333 ft
- Code IATA : ICT


KICT - Wichita Mid Continent

DERNIER METAR :
  • 051953Z 09009KT 10SM FEW045 SCT055 SCT070 SCT220 34/19 A2992 RMK AO2 SLP113 T03390189 $

METARs EXPIRÉS :
  • 051853Z VRB03KT 10SM FEW045 SCT060 BKN080 33/19 A2994 RMK AO2 SLP120 T03280194 $
  • 051753Z VRB04KT 10SM SCT035 BKN045 BKN060 32/20 A2996 RMK AO2 SLP127 T03220200 10322 20233 58010 $

TAF KICT
Valide du 05 à 18h jusqu'au 06 à 18h UTC


051722Z 0518/0618 10005KT P6SM SCT050 BKN100
FIR KZKC / Amérique du Nord



MET'MAP, la Météo Aéronautique d'un coup d'oeil ! - Copyright ORBIFLY Décembre 2007 - Disclaimer

ORBIFLY MET'MAP TEAM :

Programmation & Développement : Alexandra Zaïnal
Sur une idée originale de : Baudouin d'Aumeries
Assistance à la programmation : Marc-Olivier Méhu
Soutien technique & logistique : Manuel Goepfert

Contact : metmap@orbifly.com




SOURCES & CREDITS :

   NOAA       Earth
Advisory